Addison, Vermont
Current Conditions -  °F | °C
As of 1:15 PM on Thursday 30 Oct 2014 (Local Time) from K6B0 Reporting Station
Overcast Overcast  
Wind Chill: 10°   Ceiling: 4700
Heat Index: 10°   Visibility: 10mi
Dew Point:   Wind: 6mph
Humidity: 61%   Direction: 340°NNW
Pressure: 29.94"   Gusts: NA
Location:  44.0804°N, 73.3324°W
Report Text: K6B0 301715Z AUTO 34005KT 10SM SCT039 OVC047 10/03 A2994 RMK AO2 T01040031
Loading
Personal Weather Stations






























Interactive Weather Map
Tropical Storm Tracking
New forecast layout! Learn more

10-Day Weather Forecast

Advertisements
Track Severe Weather on mobile